sensor_id;sensor_type;location;lat;lon;timestamp;P1;durP1;ratioP1;P2;durP2;ratioP2
13026;SDS011;6580;42.680;23.324;2022-12-18T00:00:59;7.30;;;6.57;;
13026;SDS011;6580;42.680;23.324;2022-12-18T00:03:27;6.23;;;5.63;;
13026;SDS011;6580;42.680;23.324;2022-12-18T00:05:55;7.57;;;6.27;;
13026;SDS011;6580;42.680;23.324;2022-12-18T00:08:22;7.40;;;6.60;;
13026;SDS011;6580;42.680;23.324;2022-12-18T00:10:52;7.87;;;7.07;;
13026;SDS011;6580;42.680;23.324;2022-12-18T00:13:19;7.80;;;6.87;;
13026;SDS011;6580;42.680;23.324;2022-12-18T00:15:46;7.77;;;7.00;;
13026;SDS011;6580;42.680;23.324;2022-12-18T00:18:13;9.90;;;7.23;;
13026;SDS011;6580;42.680;23.324;2022-12-18T00:20:41;8.27;;;7.47;;
13026;SDS011;6580;42.680;23.324;2022-12-18T00:23:08;7.07;;;6.40;;
13026;SDS011;6580;42.680;23.324;2022-12-18T00:25:35;6.63;;;6.00;;
13026;SDS011;6580;42.680;23.324;2022-12-18T00:28:05;7.40;;;6.43;;
13026;SDS011;6580;42.680;23.324;2022-12-18T00:30:33;8.00;;;7.20;;
13026;SDS011;6580;42.680;23.324;2022-12-18T00:33:00;7.77;;;7.00;;
13026;SDS011;6580;42.680;23.324;2022-12-18T00:35:27;8.40;;;7.43;;
13026;SDS011;6580;42.680;23.324;2022-12-18T00:37:55;7.70;;;7.00;;
13026;SDS011;6580;42.680;23.324;2022-12-18T00:40:22;7.57;;;6.80;;
13026;SDS011;6580;42.680;23.324;2022-12-18T00:42:49;9.47;;;7.47;;
13026;SDS011;6580;42.680;23.324;2022-12-18T00:45:21;7.50;;;6.63;;
13026;SDS011;6580;42.680;23.324;2022-12-18T00:47:48;7.03;;;6.33;;
13026;SDS011;6580;42.680;23.324;2022-12-18T00:50:15;7.40;;;6.67;;
13026;SDS011;6580;42.680;23.324;2022-12-18T00:52:43;7.50;;;6.70;;
13026;SDS011;6580;42.680;23.324;2022-12-18T00:55:11;7.77;;;6.93;;
13026;SDS011;6580;42.680;23.324;2022-12-18T00:57:38;7.80;;;6.70;;
13026;SDS011;6580;42.680;23.324;2022-12-18T01:00:06;7.33;;;6.40;;
13026;SDS011;6580;42.680;23.324;2022-12-18T01:02:35;9.97;;;6.90;;
13026;SDS011;6580;42.680;23.324;2022-12-18T01:05:12;7.97;;;6.20;;
13026;SDS011;6580;42.680;23.324;2022-12-18T01:07:42;7.70;;;6.73;;
13026;SDS011;6580;42.680;23.324;2022-12-18T01:10:11;10.60;;;7.43;;
13026;SDS011;6580;42.680;23.324;2022-12-18T01:12:39;7.77;;;7.00;;
13026;SDS011;6580;42.680;23.324;2022-12-18T01:15:07;8.20;;;7.30;;
13026;SDS011;6580;42.680;23.324;2022-12-18T01:17:35;8.30;;;6.60;;
13026;SDS011;6580;42.680;23.324;2022-12-18T01:20:03;8.00;;;7.17;;
13026;SDS011;6580;42.680;23.324;2022-12-18T01:22:32;8.63;;;7.83;;
13026;SDS011;6580;42.680;23.324;2022-12-18T01:24:59;8.10;;;7.30;;
13026;SDS011;6580;42.680;23.324;2022-12-18T01:27:29;9.23;;;7.93;;
13026;SDS011;6580;42.680;23.324;2022-12-18T01:29:58;10.40;;;7.77;;
13026;SDS011;6580;42.680;23.324;2022-12-18T01:32:25;8.17;;;7.20;;
13026;SDS011;6580;42.680;23.324;2022-12-18T01:34:52;8.67;;;7.77;;
13026;SDS011;6580;42.680;23.324;2022-12-18T01:37:19;8.47;;;7.57;;
13026;SDS011;6580;42.680;23.324;2022-12-18T01:39:50;8.43;;;7.63;;
13026;SDS011;6580;42.680;23.324;2022-12-18T01:42:18;9.57;;;8.03;;
13026;SDS011;6580;42.680;23.324;2022-12-18T01:45:04;9.43;;;7.90;;
13026;SDS011;6580;42.680;23.324;2022-12-18T01:47:36;9.00;;;7.73;;
13026;SDS011;6580;42.680;23.324;2022-12-18T01:50:06;9.10;;;8.20;;
13026;SDS011;6580;42.680;23.324;2022-12-18T01:52:36;8.87;;;7.87;;
13026;SDS011;6580;42.680;23.324;2022-12-18T01:55:08;9.00;;;7.33;;
13026;SDS011;6580;42.680;23.324;2022-12-18T01:57:36;7.93;;;7.20;;
13026;SDS011;6580;42.680;23.324;2022-12-18T02:00:07;9.77;;;8.13;;
13026;SDS011;6580;42.680;23.324;2022-12-18T02:02:37;8.23;;;7.40;;
13026;SDS011;6580;42.680;23.324;2022-12-18T02:05:05;8.67;;;7.60;;
13026;SDS011;6580;42.680;23.324;2022-12-18T02:07:36;8.50;;;7.60;;
13026;SDS011;6580;42.680;23.324;2022-12-18T02:10:11;9.37;;;8.30;;
13026;SDS011;6580;42.680;23.324;2022-12-18T02:12:45;8.63;;;7.60;;
13026;SDS011;6580;42.680;23.324;2022-12-18T02:15:20;10.90;;;8.20;;
13026;SDS011;6580;42.680;23.324;2022-12-18T02:17:54;8.13;;;7.23;;
13026;SDS011;6580;42.680;23.324;2022-12-18T02:20:23;9.37;;;7.77;;
13026;SDS011;6580;42.680;23.324;2022-12-18T02:22:59;9.07;;;7.53;;
13026;SDS011;6580;42.680;23.324;2022-12-18T02:28:36;10.77;;;7.67;;
13026;SDS011;6580;42.680;23.324;2022-12-18T02:31:08;8.80;;;7.63;;
13026;SDS011;6580;42.680;23.324;2022-12-18T02:33:40;9.07;;;8.17;;
13026;SDS011;6580;42.680;23.324;2022-12-18T02:36:11;8.30;;;7.50;;
13026;SDS011;6580;42.680;23.324;2022-12-18T02:38:41;8.73;;;7.27;;
13026;SDS011;6580;42.680;23.324;2022-12-18T02:41:12;8.67;;;7.10;;
13026;SDS011;6580;42.680;23.324;2022-12-18T02:43:40;7.83;;;7.03;;
13026;SDS011;6580;42.680;23.324;2022-12-18T02:46:23;9.03;;;8.03;;
13026;SDS011;6580;42.680;23.324;2022-12-18T02:48:57;7.67;;;6.80;;
13026;SDS011;6580;42.680;23.324;2022-12-18T02:51:41;8.77;;;7.60;;
13026;SDS011;6580;42.680;23.324;2022-12-18T02:54:19;9.23;;;7.83;;
13026;SDS011;6580;42.680;23.324;2022-12-18T02:56:58;8.63;;;7.77;;
13026;SDS011;6580;42.680;23.324;2022-12-18T02:59:42;8.47;;;7.40;;
13026;SDS011;6580;42.680;23.324;2022-12-18T03:02:19;8.27;;;7.47;;
13026;SDS011;6580;42.680;23.324;2022-12-18T03:04:54;9.07;;;7.80;;
13026;SDS011;6580;42.680;23.324;2022-12-18T03:07:33;11.37;;;9.37;;
13026;SDS011;6580;42.680;23.324;2022-12-18T03:10:06;7.63;;;6.83;;
13026;SDS011;6580;42.680;23.324;2022-12-18T03:12:42;7.60;;;6.90;;
13026;SDS011;6580;42.680;23.324;2022-12-18T03:15:12;7.63;;;6.90;;
13026;SDS011;6580;42.680;23.324;2022-12-18T03:17:45;6.67;;;5.97;;
13026;SDS011;6580;42.680;23.324;2022-12-18T03:20:17;8.23;;;7.13;;
13026;SDS011;6580;42.680;23.324;2022-12-18T03:22:50;7.40;;;6.67;;
13026;SDS011;6580;42.680;23.324;2022-12-18T03:25:22;7.50;;;6.30;;
13026;SDS011;6580;42.680;23.324;2022-12-18T03:27:54;8.07;;;6.83;;
13026;SDS011;6580;42.680;23.324;2022-12-18T03:30:25;10.87;;;7.20;;
13026;SDS011;6580;42.680;23.324;2022-12-18T03:32:58;8.20;;;7.30;;
13026;SDS011;6580;42.680;23.324;2022-12-18T03:35:31;10.57;;;7.17;;
13026;SDS011;6580;42.680;23.324;2022-12-18T03:38:04;9.20;;;7.83;;
13026;SDS011;6580;42.680;23.324;2022-12-18T03:40:33;8.53;;;7.70;;
13026;SDS011;6580;42.680;23.324;2022-12-18T03:43:08;8.00;;;6.90;;
13026;SDS011;6580;42.680;23.324;2022-12-18T03:45:44;9.07;;;7.60;;
13026;SDS011;6580;42.680;23.324;2022-12-18T03:48:19;7.73;;;6.97;;
13026;SDS011;6580;42.680;23.324;2022-12-18T03:50:53;10.03;;;7.80;;
13026;SDS011;6580;42.680;23.324;2022-12-18T03:53:27;8.57;;;7.20;;
13026;SDS011;6580;42.680;23.324;2022-12-18T03:56:01;7.97;;;7.17;;
13026;SDS011;6580;42.680;23.324;2022-12-18T03:58:31;8.73;;;6.97;;
13026;SDS011;6580;42.680;23.324;2022-12-18T04:01:02;8.67;;;7.30;;
13026;SDS011;6580;42.680;23.324;2022-12-18T04:03:33;8.53;;;7.47;;
13026;SDS011;6580;42.680;23.324;2022-12-18T04:06:01;8.93;;;7.90;;
13026;SDS011;6580;42.680;23.324;2022-12-18T04:08:32;10.63;;;8.37;;
13026;SDS011;6580;42.680;23.324;2022-12-18T04:11:01;9.20;;;7.43;;
13026;SDS011;6580;42.680;23.324;2022-12-18T04:13:30;8.50;;;7.60;;
13026;SDS011;6580;42.680;23.324;2022-12-18T04:16:03;8.83;;;7.50;;
13026;SDS011;6580;42.680;23.324;2022-12-18T04:18:30;8.80;;;7.90;;
13026;SDS011;6580;42.680;23.324;2022-12-18T04:20:57;9.03;;;8.03;;
13026;SDS011;6580;42.680;23.324;2022-12-18T04:23:24;8.67;;;7.77;;
13026;SDS011;6580;42.680;23.324;2022-12-18T04:25:52;10.07;;;8.10;;
13026;SDS011;6580;42.680;23.324;2022-12-18T04:28:18;10.20;;;8.27;;
13026;SDS011;6580;42.680;23.324;2022-12-18T04:30:48;9.43;;;7.90;;
13026;SDS011;6580;42.680;23.324;2022-12-18T04:33:16;10.77;;;8.27;;
13026;SDS011;6580;42.680;23.324;2022-12-18T04:35:43;8.67;;;7.73;;
13026;SDS011;6580;42.680;23.324;2022-12-18T04:38:10;10.73;;;8.80;;
13026;SDS011;6580;42.680;23.324;2022-12-18T04:40:37;10.07;;;9.03;;
13026;SDS011;6580;42.680;23.324;2022-12-18T04:43:04;10.30;;;8.53;;
13026;SDS011;6580;42.680;23.324;2022-12-18T04:45:31;10.90;;;8.20;;
13026;SDS011;6580;42.680;23.324;2022-12-18T04:48:03;11.73;;;8.67;;
13026;SDS011;6580;42.680;23.324;2022-12-18T04:50:30;9.87;;;7.87;;
13026;SDS011;6580;42.680;23.324;2022-12-18T04:52:58;9.57;;;8.53;;
13026;SDS011;6580;42.680;23.324;2022-12-18T04:55:27;11.40;;;9.47;;
13026;SDS011;6580;42.680;23.324;2022-12-18T04:57:54;9.40;;;8.30;;
13026;SDS011;6580;42.680;23.324;2022-12-18T05:00:21;9.93;;;8.93;;
13026;SDS011;6580;42.680;23.324;2022-12-18T05:02:53;11.07;;;9.20;;
13026;SDS011;6580;42.680;23.324;2022-12-18T05:05:21;35.10;;;21.27;;
13026;SDS011;6580;42.680;23.324;2022-12-18T05:07:50;13.37;;;11.80;;
13026;SDS011;6580;42.680;23.324;2022-12-18T05:10:17;12.63;;;10.97;;
13026;SDS011;6580;42.680;23.324;2022-12-18T05:12:46;13.70;;;10.83;;
13026;SDS011;6580;42.680;23.324;2022-12-18T05:15:27;13.30;;;10.37;;
13026;SDS011;6580;42.680;23.324;2022-12-18T05:17:55;13.07;;;9.63;;
13026;SDS011;6580;42.680;23.324;2022-12-18T05:20:23;15.00;;;11.23;;
13026;SDS011;6580;42.680;23.324;2022-12-18T05:22:51;13.03;;;10.00;;
13026;SDS011;6580;42.680;23.324;2022-12-18T05:25:19;13.97;;;11.57;;
13026;SDS011;6580;42.680;23.324;2022-12-18T05:27:47;11.90;;;10.07;;
13026;SDS011;6580;42.680;23.324;2022-12-18T05:30:14;13.27;;;9.97;;
13026;SDS011;6580;42.680;23.324;2022-12-18T05:32:43;14.37;;;11.17;;
13026;SDS011;6580;42.680;23.324;2022-12-18T05:35:10;13.17;;;11.57;;
13026;SDS011;6580;42.680;23.324;2022-12-18T05:37:39;15.27;;;11.67;;
13026;SDS011;6580;42.680;23.324;2022-12-18T05:40:06;13.70;;;10.90;;
13026;SDS011;6580;42.680;23.324;2022-12-18T05:42:33;15.40;;;11.57;;
13026;SDS011;6580;42.680;23.324;2022-12-18T05:45:00;12.97;;;10.20;;
13026;SDS011;6580;42.680;23.324;2022-12-18T05:47:27;14.43;;;9.80;;
13026;SDS011;6580;42.680;23.324;2022-12-18T05:49:54;14.23;;;11.00;;
13026;SDS011;6580;42.680;23.324;2022-12-18T05:52:21;13.77;;;10.17;;
13026;SDS011;6580;42.680;23.324;2022-12-18T05:54:51;13.13;;;10.70;;
13026;SDS011;6580;42.680;23.324;2022-12-18T05:57:19;13.47;;;11.20;;
13026;SDS011;6580;42.680;23.324;2022-12-18T05:59:47;14.50;;;11.53;;
13026;SDS011;6580;42.680;23.324;2022-12-18T06:02:14;14.90;;;11.13;;
13026;SDS011;6580;42.680;23.324;2022-12-18T06:04:43;11.17;;;9.47;;
13026;SDS011;6580;42.680;23.324;2022-12-18T06:07:10;16.30;;;12.50;;
13026;SDS011;6580;42.680;23.324;2022-12-18T06:09:37;13.63;;;11.37;;
13026;SDS011;6580;42.680;23.324;2022-12-18T06:12:07;15.70;;;11.33;;
13026;SDS011;6580;42.680;23.324;2022-12-18T06:14:36;15.57;;;11.03;;
13026;SDS011;6580;42.680;23.324;2022-12-18T06:17:03;14.20;;;11.33;;
13026;SDS011;6580;42.680;23.324;2022-12-18T06:19:31;13.80;;;10.70;;
13026;SDS011;6580;42.680;23.324;2022-12-18T06:21:58;15.40;;;12.13;;
13026;SDS011;6580;42.680;23.324;2022-12-18T06:24:27;16.37;;;12.03;;
13026;SDS011;6580;42.680;23.324;2022-12-18T06:26:54;12.20;;;10.03;;
13026;SDS011;6580;42.680;23.324;2022-12-18T06:29:25;16.40;;;11.63;;
13026;SDS011;6580;42.680;23.324;2022-12-18T06:31:52;15.50;;;11.77;;
13026;SDS011;6580;42.680;23.324;2022-12-18T06:34:20;14.10;;;10.57;;
13026;SDS011;6580;42.680;23.324;2022-12-18T06:36:48;14.97;;;11.47;;
13026;SDS011;6580;42.680;23.324;2022-12-18T06:39:14;12.67;;;10.53;;
13026;SDS011;6580;42.680;23.324;2022-12-18T06:41:42;15.47;;;12.37;;
13026;SDS011;6580;42.680;23.324;2022-12-18T06:44:08;16.47;;;12.30;;
13026;SDS011;6580;42.680;23.324;2022-12-18T06:46:39;15.40;;;11.47;;
13026;SDS011;6580;42.680;23.324;2022-12-18T06:49:06;14.13;;;10.93;;
13026;SDS011;6580;42.680;23.324;2022-12-18T06:51:35;16.00;;;11.97;;
13026;SDS011;6580;42.680;23.324;2022-12-18T06:54:06;14.87;;;12.10;;
13026;SDS011;6580;42.680;23.324;2022-12-18T06:56:33;13.10;;;11.03;;
13026;SDS011;6580;42.680;23.324;2022-12-18T06:58:59;13.07;;;11.27;;
13026;SDS011;6580;42.680;23.324;2022-12-18T07:01:27;15.07;;;12.07;;
13026;SDS011;6580;42.680;23.324;2022-12-18T07:03:56;16.37;;;11.93;;
13026;SDS011;6580;42.680;23.324;2022-12-18T07:06:24;14.37;;;10.97;;
13026;SDS011;6580;42.680;23.324;2022-12-18T07:08:52;13.03;;;10.10;;
13026;SDS011;6580;42.680;23.324;2022-12-18T07:11:19;15.33;;;10.80;;
13026;SDS011;6580;42.680;23.324;2022-12-18T07:13:46;14.43;;;11.87;;
13026;SDS011;6580;42.680;23.324;2022-12-18T07:16:14;13.83;;;10.83;;
13026;SDS011;6580;42.680;23.324;2022-12-18T07:18:42;13.60;;;10.70;;
13026;SDS011;6580;42.680;23.324;2022-12-18T07:21:11;15.37;;;12.30;;
13026;SDS011;6580;42.680;23.324;2022-12-18T07:23:39;16.03;;;11.93;;
13026;SDS011;6580;42.680;23.324;2022-12-18T07:26:07;14.27;;;11.33;;
13026;SDS011;6580;42.680;23.324;2022-12-18T07:28:36;16.03;;;11.20;;
13026;SDS011;6580;42.680;23.324;2022-12-18T07:31:05;14.60;;;12.00;;
13026;SDS011;6580;42.680;23.324;2022-12-18T07:33:32;14.63;;;11.70;;
13026;SDS011;6580;42.680;23.324;2022-12-18T07:36:00;18.43;;;13.07;;
13026;SDS011;6580;42.680;23.324;2022-12-18T07:38:29;15.43;;;12.40;;
13026;SDS011;6580;42.680;23.324;2022-12-18T07:41:00;17.43;;;13.80;;
13026;SDS011;6580;42.680;23.324;2022-12-18T07:43:27;17.17;;;12.87;;
13026;SDS011;6580;42.680;23.324;2022-12-18T07:45:55;18.60;;;13.70;;
13026;SDS011;6580;42.680;23.324;2022-12-18T07:48:24;18.00;;;13.37;;
13026;SDS011;6580;42.680;23.324;2022-12-18T07:50:52;17.77;;;13.27;;
13026;SDS011;6580;42.680;23.324;2022-12-18T07:53:19;18.73;;;13.23;;
13026;SDS011;6580;42.680;23.324;2022-12-18T07:55:47;19.10;;;13.87;;
13026;SDS011;6580;42.680;23.324;2022-12-18T07:58:14;18.40;;;14.43;;
13026;SDS011;6580;42.680;23.324;2022-12-18T08:00:41;17.97;;;13.93;;
13026;SDS011;6580;42.680;23.324;2022-12-18T08:03:07;18.93;;;13.70;;
13026;SDS011;6580;42.680;23.324;2022-12-18T08:05:35;18.37;;;14.43;;
13026;SDS011;6580;42.680;23.324;2022-12-18T08:08:01;20.77;;;13.53;;
13026;SDS011;6580;42.680;23.324;2022-12-18T08:10:28;18.97;;;14.70;;
13026;SDS011;6580;42.680;23.324;2022-12-18T08:12:56;19.27;;;14.90;;
13026;SDS011;6580;42.680;23.324;2022-12-18T08:15:25;18.30;;;14.50;;
13026;SDS011;6580;42.680;23.324;2022-12-18T08:17:55;21.70;;;14.70;;
13026;SDS011;6580;42.680;23.324;2022-12-18T08:20:22;20.10;;;14.87;;
13026;SDS011;6580;42.680;23.324;2022-12-18T08:22:49;18.53;;;14.30;;
13026;SDS011;6580;42.680;23.324;2022-12-18T08:25:16;19.23;;;14.50;;
13026;SDS011;6580;42.680;23.324;2022-12-18T08:27:43;18.97;;;13.93;;
13026;SDS011;6580;42.680;23.324;2022-12-18T08:30:13;21.53;;;15.43;;
13026;SDS011;6580;42.680;23.324;2022-12-18T08:32:40;20.53;;;15.50;;
13026;SDS011;6580;42.680;23.324;2022-12-18T08:35:07;20.10;;;15.00;;
13026;SDS011;6580;42.680;23.324;2022-12-18T08:37:36;20.07;;;15.70;;
13026;SDS011;6580;42.680;23.324;2022-12-18T08:40:05;20.47;;;15.63;;
13026;SDS011;6580;42.680;23.324;2022-12-18T08:42:33;20.43;;;16.10;;
13026;SDS011;6580;42.680;23.324;2022-12-18T08:45:18;21.03;;;15.13;;
13026;SDS011;6580;42.680;23.324;2022-12-18T08:47:46;18.93;;;15.27;;
13026;SDS011;6580;42.680;23.324;2022-12-18T08:50:13;20.33;;;13.60;;
13026;SDS011;6580;42.680;23.324;2022-12-18T08:52:40;19.63;;;15.70;;
13026;SDS011;6580;42.680;23.324;2022-12-18T08:55:07;21.20;;;15.30;;
13026;SDS011;6580;42.680;23.324;2022-12-18T08:57:35;19.10;;;12.73;;
13026;SDS011;6580;42.680;23.324;2022-12-18T09:00:03;19.07;;;14.20;;
13026;SDS011;6580;42.680;23.324;2022-12-18T09:02:33;17.90;;;13.67;;
13026;SDS011;6580;42.680;23.324;2022-12-18T09:05:00;20.07;;;14.17;;
13026;SDS011;6580;42.680;23.324;2022-12-18T09:07:28;17.67;;;13.30;;
13026;SDS011;6580;42.680;23.324;2022-12-18T09:09:55;17.83;;;14.60;;
13026;SDS011;6580;42.680;23.324;2022-12-18T09:12:22;18.30;;;13.80;;
13026;SDS011;6580;42.680;23.324;2022-12-18T09:14:49;18.83;;;13.27;;
13026;SDS011;6580;42.680;23.324;2022-12-18T09:17:16;17.47;;;13.00;;
13026;SDS011;6580;42.680;23.324;2022-12-18T09:19:45;17.33;;;13.43;;
13026;SDS011;6580;42.680;23.324;2022-12-18T09:22:11;17.27;;;12.67;;
13026;SDS011;6580;42.680;23.324;2022-12-18T09:24:38;17.60;;;12.70;;
13026;SDS011;6580;42.680;23.324;2022-12-18T09:27:05;17.83;;;12.93;;
13026;SDS011;6580;42.680;23.324;2022-12-18T09:29:32;17.13;;;12.37;;
13026;SDS011;6580;42.680;23.324;2022-12-18T09:32:00;16.60;;;12.27;;
13026;SDS011;6580;42.680;23.324;2022-12-18T09:34:29;18.33;;;14.13;;
13026;SDS011;6580;42.680;23.324;2022-12-18T09:37:00;14.90;;;11.60;;
13026;SDS011;6580;42.680;23.324;2022-12-18T09:39:27;16.67;;;11.63;;
13026;SDS011;6580;42.680;23.324;2022-12-18T09:41:54;17.97;;;12.60;;
13026;SDS011;6580;42.680;23.324;2022-12-18T09:44:25;16.37;;;12.07;;
13026;SDS011;6580;42.680;23.324;2022-12-18T09:47:00;15.50;;;11.67;;
13026;SDS011;6580;42.680;23.324;2022-12-18T09:49:32;15.97;;;12.40;;
13026;SDS011;6580;42.680;23.324;2022-12-18T09:52:08;16.17;;;11.93;;
13026;SDS011;6580;42.680;23.324;2022-12-18T09:54:40;19.07;;;12.63;;
13026;SDS011;6580;42.680;23.324;2022-12-18T09:57:10;15.97;;;11.37;;
13026;SDS011;6580;42.680;23.324;2022-12-18T09:59:40;14.57;;;11.50;;
13026;SDS011;6580;42.680;23.324;2022-12-18T10:02:14;16.60;;;11.80;;
13026;SDS011;6580;42.680;23.324;2022-12-18T10:04:43;16.57;;;12.63;;
13026;SDS011;6580;42.680;23.324;2022-12-18T10:07:17;16.33;;;12.40;;
13026;SDS011;6580;42.680;23.324;2022-12-18T10:09:51;15.93;;;12.50;;
13026;SDS011;6580;42.680;23.324;2022-12-18T10:12:29;15.33;;;12.67;;
13026;SDS011;6580;42.680;23.324;2022-12-18T10:15:05;16.87;;;13.13;;
13026;SDS011;6580;42.680;23.324;2022-12-18T10:17:41;17.00;;;12.60;;
13026;SDS011;6580;42.680;23.324;2022-12-18T10:20:16;17.50;;;13.10;;
13026;SDS011;6580;42.680;23.324;2022-12-18T10:22:53;13.07;;;10.50;;
13026;SDS011;6580;42.680;23.324;2022-12-18T10:25:24;15.50;;;11.20;;
13026;SDS011;6580;42.680;23.324;2022-12-18T10:28:07;15.33;;;11.13;;
13026;SDS011;6580;42.680;23.324;2022-12-18T10:30:40;15.30;;;12.50;;
13026;SDS011;6580;42.680;23.324;2022-12-18T10:33:10;14.53;;;11.43;;
13026;SDS011;6580;42.680;23.324;2022-12-18T10:35:39;15.43;;;12.50;;
13026;SDS011;6580;42.680;23.324;2022-12-18T10:38:21;15.50;;;12.43;;
13026;SDS011;6580;42.680;23.324;2022-12-18T10:40:51;16.50;;;12.23;;
13026;SDS011;6580;42.680;23.324;2022-12-18T10:43:21;18.40;;;12.77;;
13026;SDS011;6580;42.680;23.324;2022-12-18T10:46:12;17.23;;;13.07;;
13026;SDS011;6580;42.680;23.324;2022-12-18T10:48:53;15.43;;;11.87;;
13026;SDS011;6580;42.680;23.324;2022-12-18T10:51:33;15.77;;;12.63;;
13026;SDS011;6580;42.680;23.324;2022-12-18T10:54:06;15.53;;;11.90;;
13026;SDS011;6580;42.680;23.324;2022-12-18T10:56:42;20.90;;;14.23;;
13026;SDS011;6580;42.680;23.324;2022-12-18T10:59:10;18.30;;;14.00;;
13026;SDS011;6580;42.680;23.324;2022-12-18T11:01:46;17.73;;;13.60;;
13026;SDS011;6580;42.680;23.324;2022-12-18T11:04:18;19.03;;;14.83;;
13026;SDS011;6580;42.680;23.324;2022-12-18T11:06:52;16.30;;;12.47;;
13026;SDS011;6580;42.680;23.324;2022-12-18T11:09:26;17.97;;;13.83;;
13026;SDS011;6580;42.680;23.324;2022-12-18T11:11:55;16.30;;;12.73;;
13026;SDS011;6580;42.680;23.324;2022-12-18T11:14:28;14.43;;;11.23;;
13026;SDS011;6580;42.680;23.324;2022-12-18T11:16:57;15.40;;;11.37;;
13026;SDS011;6580;42.680;23.324;2022-12-18T11:19:28;19.90;;;12.60;;
13026;SDS011;6580;42.680;23.324;2022-12-18T11:22:00;17.60;;;13.27;;
13026;SDS011;6580;42.680;23.324;2022-12-18T11:24:32;17.57;;;12.70;;
13026;SDS011;6580;42.680;23.324;2022-12-18T11:27:02;15.60;;;12.33;;
13026;SDS011;6580;42.680;23.324;2022-12-18T11:29:32;15.33;;;11.97;;
13026;SDS011;6580;42.680;23.324;2022-12-18T11:32:20;16.07;;;12.07;;
13026;SDS011;6580;42.680;23.324;2022-12-18T11:34:59;15.50;;;11.93;;
13026;SDS011;6580;42.680;23.324;2022-12-18T11:37:30;15.63;;;12.37;;
13026;SDS011;6580;42.680;23.324;2022-12-18T11:40:03;17.03;;;13.13;;
13026;SDS011;6580;42.680;23.324;2022-12-18T11:42:41;15.87;;;12.23;;
13026;SDS011;6580;42.680;23.324;2022-12-18T11:45:21;17.27;;;13.60;;
13026;SDS011;6580;42.680;23.324;2022-12-18T11:47:54;20.00;;;14.50;;
13026;SDS011;6580;42.680;23.324;2022-12-18T11:50:30;17.70;;;12.83;;
13026;SDS011;6580;42.680;23.324;2022-12-18T11:53:09;15.17;;;12.03;;
13026;SDS011;6580;42.680;23.324;2022-12-18T11:55:45;15.80;;;11.47;;
13026;SDS011;6580;42.680;23.324;2022-12-18T11:58:24;15.37;;;11.30;;
13026;SDS011;6580;42.680;23.324;2022-12-18T12:01:05;15.07;;;12.13;;
13026;SDS011;6580;42.680;23.324;2022-12-18T12:03:50;20.33;;;14.40;;
13026;SDS011;6580;42.680;23.324;2022-12-18T12:06:40;17.93;;;12.83;;
13026;SDS011;6580;42.680;23.324;2022-12-18T12:09:16;15.73;;;11.90;;
13026;SDS011;6580;42.680;23.324;2022-12-18T12:11:54;18.93;;;13.73;;
13026;SDS011;6580;42.680;23.324;2022-12-18T12:14:44;19.37;;;14.67;;
13026;SDS011;6580;42.680;23.324;2022-12-18T12:17:22;19.63;;;13.93;;
13026;SDS011;6580;42.680;23.324;2022-12-18T12:20:04;17.77;;;12.40;;
13026;SDS011;6580;42.680;23.324;2022-12-18T12:22:49;18.93;;;13.47;;
13026;SDS011;6580;42.680;23.324;2022-12-18T12:25:30;15.33;;;11.73;;
13026;SDS011;6580;42.680;23.324;2022-12-18T12:28:25;15.80;;;11.63;;
13026;SDS011;6580;42.680;23.324;2022-12-18T12:31:05;15.50;;;11.37;;
13026;SDS011;6580;42.680;23.324;2022-12-18T12:33:45;18.27;;;12.00;;
13026;SDS011;6580;42.680;23.324;2022-12-18T12:36:24;18.90;;;15.00;;
13026;SDS011;6580;42.680;23.324;2022-12-18T12:39:00;17.07;;;13.13;;
13026;SDS011;6580;42.680;23.324;2022-12-18T12:41:30;18.10;;;14.37;;
13026;SDS011;6580;42.680;23.324;2022-12-18T12:44:20;20.73;;;14.97;;
13026;SDS011;6580;42.680;23.324;2022-12-18T12:46:55;18.77;;;14.07;;
13026;SDS011;6580;42.680;23.324;2022-12-18T12:49:29;20.53;;;15.27;;
13026;SDS011;6580;42.680;23.324;2022-12-18T12:52:03;18.30;;;14.73;;
13026;SDS011;6580;42.680;23.324;2022-12-18T12:54:34;17.80;;;13.90;;
13026;SDS011;6580;42.680;23.324;2022-12-18T12:57:02;16.97;;;13.57;;
13026;SDS011;6580;42.680;23.324;2022-12-18T12:59:37;18.83;;;14.47;;
13026;SDS011;6580;42.680;23.324;2022-12-18T13:02:15;20.57;;;15.50;;
13026;SDS011;6580;42.680;23.324;2022-12-18T13:04:50;19.10;;;14.60;;
13026;SDS011;6580;42.680;23.324;2022-12-18T13:07:25;18.60;;;14.60;;
13026;SDS011;6580;42.680;23.324;2022-12-18T13:12:58;20.57;;;14.97;;
13026;SDS011;6580;42.680;23.324;2022-12-18T13:15:29;18.50;;;14.63;;
13026;SDS011;6580;42.680;23.324;2022-12-18T13:20:49;18.13;;;12.97;;
13026;SDS011;6580;42.680;23.324;2022-12-18T13:23:29;18.53;;;13.83;;
13026;SDS011;6580;42.680;23.324;2022-12-18T13:28:59;18.73;;;13.07;;
13026;SDS011;6580;42.680;23.324;2022-12-18T13:34:35;23.70;;;16.30;;
13026;SDS011;6580;42.680;23.324;2022-12-18T13:43:22;17.60;;;13.20;;
13026;SDS011;6580;42.680;23.324;2022-12-18T13:46:00;17.30;;;12.73;;
13026;SDS011;6580;42.680;23.324;2022-12-18T13:48:29;19.43;;;14.53;;
13026;SDS011;6580;42.680;23.324;2022-12-18T13:51:02;17.27;;;14.10;;
13026;SDS011;6580;42.680;23.324;2022-12-18T13:53:33;18.67;;;12.97;;
13026;SDS011;6580;42.680;23.324;2022-12-18T13:56:07;17.60;;;13.87;;
13026;SDS011;6580;42.680;23.324;2022-12-18T13:58:34;20.23;;;15.23;;
13026;SDS011;6580;42.680;23.324;2022-12-18T14:01:01;21.70;;;16.30;;
13026;SDS011;6580;42.680;23.324;2022-12-18T14:03:30;18.07;;;13.93;;
13026;SDS011;6580;42.680;23.324;2022-12-18T14:06:03;20.03;;;15.37;;
13026;SDS011;6580;42.680;23.324;2022-12-18T14:08:36;22.50;;;16.50;;
13026;SDS011;6580;42.680;23.324;2022-12-18T14:11:05;15.10;;;12.20;;
13026;SDS011;6580;42.680;23.324;2022-12-18T14:13:35;17.83;;;13.00;;
13026;SDS011;6580;42.680;23.324;2022-12-18T14:16:04;18.13;;;13.13;;
13026;SDS011;6580;42.680;23.324;2022-12-18T14:18:42;15.67;;;12.57;;
13026;SDS011;6580;42.680;23.324;2022-12-18T14:21:20;17.83;;;13.20;;
13026;SDS011;6580;42.680;23.324;2022-12-18T14:24:02;18.70;;;13.30;;
13026;SDS011;6580;42.680;23.324;2022-12-18T14:26:31;16.83;;;12.37;;
13026;SDS011;6580;42.680;23.324;2022-12-18T14:29:01;16.43;;;12.33;;
13026;SDS011;6580;42.680;23.324;2022-12-18T14:31:45;15.90;;;12.20;;
13026;SDS011;6580;42.680;23.324;2022-12-18T14:34:15;15.27;;;11.63;;
13026;SDS011;6580;42.680;23.324;2022-12-18T14:36:52;17.77;;;13.23;;
13026;SDS011;6580;42.680;23.324;2022-12-18T14:39:22;16.70;;;12.90;;
13026;SDS011;6580;42.680;23.324;2022-12-18T14:41:50;17.67;;;13.30;;
13026;SDS011;6580;42.680;23.324;2022-12-18T14:44:17;15.70;;;12.20;;
13026;SDS011;6580;42.680;23.324;2022-12-18T14:46:46;15.03;;;11.90;;
13026;SDS011;6580;42.680;23.324;2022-12-18T14:49:22;16.20;;;11.90;;
13026;SDS011;6580;42.680;23.324;2022-12-18T14:51:55;16.00;;;12.07;;
13026;SDS011;6580;42.680;23.324;2022-12-18T14:54:25;17.97;;;13.20;;
13026;SDS011;6580;42.680;23.324;2022-12-18T14:56:55;15.87;;;11.57;;
13026;SDS011;6580;42.680;23.324;2022-12-18T14:59:26;17.50;;;11.67;;
13026;SDS011;6580;42.680;23.324;2022-12-18T15:01:57;15.10;;;11.70;;
13026;SDS011;6580;42.680;23.324;2022-12-18T15:04:28;19.77;;;14.70;;
13026;SDS011;6580;42.680;23.324;2022-12-18T15:10:01;15.70;;;12.63;;
13026;SDS011;6580;42.680;23.324;2022-12-18T15:12:33;18.47;;;13.00;;
13026;SDS011;6580;42.680;23.324;2022-12-18T15:15:03;17.73;;;13.40;;
13026;SDS011;6580;42.680;23.324;2022-12-18T15:17:32;16.33;;;12.43;;